createdAt,value
2022-12-22T00:00:49.281Z,7.93
2022-12-22T00:03:15.775Z,9.85
2022-12-22T00:05:42.165Z,16.20
2022-12-22T00:08:09.032Z,10.90
2022-12-22T00:10:35.313Z,7.05
2022-12-22T00:13:01.658Z,7.20
2022-12-22T00:15:31.099Z,14.63
2022-12-22T00:17:57.347Z,5.95
2022-12-22T00:20:23.592Z,7.13
2022-12-22T00:22:49.851Z,6.25
2022-12-22T00:25:16.708Z,6.00
2022-12-22T00:27:45.737Z,5.43
2022-12-22T00:30:12.889Z,7.18
2022-12-22T00:32:40.547Z,4.10
2022-12-22T00:35:11.762Z,5.28
2022-12-22T00:37:38.071Z,3.28
2022-12-22T00:40:15.313Z,6.13
2022-12-22T00:42:41.613Z,3.70
2022-12-22T00:45:08.251Z,5.68
2022-12-22T00:47:34.721Z,3.00
2022-12-22T00:50:02.401Z,6.80
2022-12-22T00:52:28.769Z,6.10
2022-12-22T00:54:55.102Z,7.45
2022-12-22T00:57:22.914Z,5.45
2022-12-22T00:59:50.051Z,4.05
2022-12-22T01:02:17.503Z,5.60
2022-12-22T01:04:43.908Z,7.10
2022-12-22T01:07:12.480Z,6.10
2022-12-22T01:09:38.855Z,6.57
2022-12-22T01:12:09.461Z,7.40
2022-12-22T01:14:35.761Z,6.50
2022-12-22T01:17:02.076Z,6.45
2022-12-22T01:19:28.380Z,6.03
2022-12-22T01:21:54.803Z,6.85
2022-12-22T01:24:22.451Z,6.45
2022-12-22T01:26:48.731Z,6.13
2022-12-22T01:29:15.076Z,7.20
2022-12-22T01:31:41.420Z,6.38
2022-12-22T01:34:08.711Z,7.88
2022-12-22T01:36:34.979Z,5.72
2022-12-22T01:39:01.359Z,17.23
2022-12-22T01:41:29.009Z,7.13
2022-12-22T01:43:55.299Z,6.25
2022-12-22T01:46:22.899Z,5.13
2022-12-22T01:48:49.190Z,5.22
2022-12-22T01:51:17.841Z,9.13
2022-12-22T01:53:44.589Z,8.27
2022-12-22T01:56:10.890Z,5.18
2022-12-22T01:58:39.985Z,7.13
2022-12-22T02:01:06.402Z,8.27
2022-12-22T02:03:33.105Z,5.65
2022-12-22T02:06:05.306Z,7.13
2022-12-22T02:08:33.290Z,6.60
2022-12-22T02:11:06.050Z,6.07
2022-12-22T02:13:39.263Z,7.57
2022-12-22T02:16:10.387Z,5.15
2022-12-22T02:18:41.283Z,5.90
2022-12-22T02:21:10.312Z,6.85
2022-12-22T02:26:05.312Z,4.97
2022-12-22T02:28:33.188Z,6.45
2022-12-22T02:30:59.534Z,4.05
2022-12-22T02:33:25.884Z,5.68
2022-12-22T02:35:55.290Z,4.97
2022-12-22T02:38:25.006Z,6.03
2022-12-22T02:40:57.651Z,4.40
2022-12-22T02:43:32.255Z,12.13
2022-12-22T02:46:03.659Z,7.68
2022-12-22T02:48:32.238Z,7.03
2022-12-22T02:51:02.404Z,4.35
2022-12-22T02:53:28.979Z,5.95
2022-12-22T02:55:58.519Z,4.72
2022-12-22T02:58:25.354Z,5.88
2022-12-22T03:00:51.883Z,11.52
2022-12-22T03:03:19.903Z,3.97
2022-12-22T03:05:46.256Z,4.15
2022-12-22T03:08:12.547Z,19.95
2022-12-22T03:10:38.836Z,23.13
2022-12-22T03:13:05.151Z,4.25
2022-12-22T03:15:31.448Z,4.47
2022-12-22T03:18:00.704Z,4.45
2022-12-22T03:20:28.341Z,10.77
2022-12-22T03:22:54.823Z,4.05
2022-12-22T03:25:21.157Z,5.07
2022-12-22T03:27:47.530Z,4.22
2022-12-22T03:30:13.874Z,4.55
2022-12-22T03:32:40.200Z,7.45
2022-12-22T03:35:07.031Z,4.57
2022-12-22T03:37:34.643Z,3.65
2022-12-22T03:40:00.956Z,21.15
2022-12-22T03:42:27.226Z,3.67
2022-12-22T03:44:53.482Z,6.57
2022-12-22T03:47:19.756Z,5.88
2022-12-22T03:49:46.047Z,5.18
2022-12-22T03:52:12.398Z,4.40
2022-12-22T03:54:40.095Z,3.80
2022-12-22T03:57:06.404Z,6.13
2022-12-22T03:59:32.695Z,4.18
2022-12-22T04:01:59.183Z,6.07
2022-12-22T04:04:26.076Z,3.03
2022-12-22T04:06:52.406Z,4.38
2022-12-22T04:09:18.711Z,5.55
2022-12-22T04:11:46.310Z,4.70
2022-12-22T04:14:12.607Z,2.88
2022-12-22T04:16:38.967Z,3.75
2022-12-22T04:19:05.545Z,5.18
2022-12-22T04:21:31.807Z,2.80
2022-12-22T04:23:58.082Z,4.05
2022-12-22T04:26:24.743Z,12.55
2022-12-22T04:28:52.772Z,3.38
2022-12-22T04:31:19.701Z,4.22
2022-12-22T04:33:46.273Z,3.97
2022-12-22T04:36:12.631Z,5.95
2022-12-22T04:38:39.125Z,6.18
2022-12-22T04:41:06.018Z,4.63
2022-12-22T04:43:32.644Z,2.13
2022-12-22T04:46:00.427Z,3.28
2022-12-22T04:48:27.394Z,4.03
2022-12-22T04:50:54.625Z,3.15
2022-12-22T04:53:21.347Z,2.70
2022-12-22T04:55:47.730Z,3.33
2022-12-22T04:58:14.257Z,4.22
2022-12-22T05:00:40.901Z,4.10
2022-12-22T05:03:08.874Z,5.43
2022-12-22T05:05:35.717Z,5.10
2022-12-22T05:08:02.270Z,4.05
2022-12-22T05:10:28.926Z,12.63
2022-12-22T05:12:55.305Z,6.13
2022-12-22T05:15:21.588Z,4.22
2022-12-22T05:17:47.876Z,3.47
2022-12-22T05:20:15.531Z,7.55
2022-12-22T05:22:41.839Z,15.23
2022-12-22T05:25:08.527Z,8.30
2022-12-22T05:27:34.870Z,5.20
2022-12-22T05:30:01.184Z,4.15
2022-12-22T05:32:27.700Z,5.68
2022-12-22T05:34:54.002Z,11.43
2022-12-22T05:37:21.630Z,5.78
2022-12-22T05:39:47.909Z,9.57
2022-12-22T05:42:14.230Z,6.18
2022-12-22T05:44:40.588Z,4.97
2022-12-22T05:47:06.895Z,5.30
2022-12-22T05:49:33.244Z,7.20
2022-12-22T05:51:59.560Z,5.00
2022-12-22T05:54:27.191Z,8.18
2022-12-22T05:56:53.513Z,7.05
2022-12-22T05:59:19.842Z,5.85
2022-12-22T06:01:46.227Z,7.40
2022-12-22T06:04:12.669Z,9.07
2022-12-22T06:06:39.043Z,11.32
2022-12-22T06:09:05.339Z,19.65
2022-12-22T06:11:33.003Z,8.52
2022-12-22T06:13:59.283Z,6.95
2022-12-22T06:16:25.613Z,7.13
2022-12-22T06:18:51.904Z,7.00
2022-12-22T06:21:18.231Z,8.70
2022-12-22T06:23:44.560Z,10.10
2022-12-22T06:26:10.851Z,8.95
2022-12-22T06:28:38.760Z,9.65
2022-12-22T06:31:05.221Z,9.63
2022-12-22T06:33:31.518Z,11.25
2022-12-22T06:35:59.314Z,10.02
2022-12-22T06:38:26.447Z,10.80
2022-12-22T06:40:52.719Z,10.18
2022-12-22T06:43:19.042Z,10.63
2022-12-22T06:45:46.719Z,12.38
2022-12-22T06:48:13.435Z,9.45
2022-12-22T06:50:39.777Z,11.75
2022-12-22T06:53:06.852Z,8.73
2022-12-22T06:55:33.175Z,11.85
2022-12-22T06:57:59.463Z,6.90
2022-12-22T07:00:25.807Z,7.93
2022-12-22T07:02:53.844Z,6.50
2022-12-22T07:05:20.438Z,5.00
2022-12-22T07:07:46.741Z,5.18
2022-12-22T07:10:13.096Z,4.72
2022-12-22T07:12:40.521Z,7.13
2022-12-22T07:15:07.856Z,5.78
2022-12-22T07:17:34.239Z,5.20
2022-12-22T07:20:01.883Z,5.50
2022-12-22T07:22:30.807Z,3.53
2022-12-22T07:24:57.545Z,4.75
2022-12-22T07:27:23.879Z,5.43
2022-12-22T07:29:50.188Z,5.22
2022-12-22T07:32:16.455Z,13.73
2022-12-22T07:34:42.780Z,7.53
2022-12-22T07:37:10.805Z,15.90
2022-12-22T07:39:37.080Z,27.48
2022-12-22T07:42:03.460Z,12.15
2022-12-22T07:44:29.763Z,14.00
2022-12-22T07:46:56.217Z,20.83
2022-12-22T07:49:22.528Z,12.82
2022-12-22T07:51:49.055Z,8.95
2022-12-22T07:54:16.972Z,11.18
2022-12-22T07:56:43.815Z,12.45
2022-12-22T07:59:10.518Z,15.02
2022-12-22T08:01:37.205Z,18.38
2022-12-22T08:04:03.789Z,14.20
2022-12-22T08:06:31.945Z,19.67
2022-12-22T08:08:58.228Z,11.23
2022-12-22T08:11:25.873Z,9.85
2022-12-22T08:13:55.910Z,9.27
2022-12-22T08:16:27.281Z,11.38
2022-12-22T08:18:53.696Z,10.60
2022-12-22T08:21:19.980Z,10.30
2022-12-22T08:23:46.362Z,7.93
2022-12-22T08:26:16.062Z,11.90
2022-12-22T08:28:46.221Z,10.32
2022-12-22T08:31:13.170Z,12.10
2022-12-22T08:33:39.540Z,12.95
2022-12-22T08:36:08.415Z,13.77
2022-12-22T08:41:01.053Z,19.10
2022-12-22T08:43:27.408Z,16.17
2022-12-22T08:45:55.023Z,13.00
2022-12-22T08:48:21.361Z,10.73
2022-12-22T08:50:47.697Z,15.98
2022-12-22T08:53:37.215Z,14.93
2022-12-22T08:56:00.288Z,14.07
2022-12-22T08:58:26.610Z,12.10
2022-12-22T09:00:52.949Z,14.32
2022-12-22T09:03:20.695Z,17.63
2022-12-22T09:05:47.029Z,15.18
2022-12-22T09:08:13.387Z,17.23
2022-12-22T09:10:41.502Z,16.42
2022-12-22T09:13:07.858Z,18.25
2022-12-22T09:15:34.128Z,15.60
2022-12-22T09:18:00.455Z,27.10
2022-12-22T09:20:28.091Z,21.65
2022-12-22T09:22:54.345Z,20.70
2022-12-22T09:25:23.658Z,23.63
2022-12-22T09:27:49.952Z,22.60
2022-12-22T09:30:16.368Z,23.08
2022-12-22T09:32:42.709Z,33.30
2022-12-22T09:35:09.169Z,20.52
2022-12-22T09:37:36.807Z,18.35
2022-12-22T09:40:03.271Z,18.05
2022-12-22T09:42:32.246Z,18.25
2022-12-22T09:44:58.574Z,15.02
2022-12-22T09:47:26.233Z,18.90
2022-12-22T09:49:54.536Z,17.83
2022-12-22T09:52:22.943Z,19.90
2022-12-22T09:54:50.791Z,20.30
2022-12-22T09:57:17.222Z,17.08
2022-12-22T09:59:43.558Z,21.25
2022-12-22T10:02:21.677Z,21.83
2022-12-22T10:04:52.396Z,23.43
2022-12-22T10:07:22.380Z,16.45
2022-12-22T10:09:50.716Z,19.42
2022-12-22T10:14:46.205Z,22.75
2022-12-22T10:17:20.120Z,19.90
2022-12-22T10:19:47.348Z,20.13
2022-12-22T10:22:19.499Z,21.00
2022-12-22T10:24:45.801Z,21.17
2022-12-22T10:27:13.498Z,14.30
2022-12-22T10:29:39.864Z,20.75
2022-12-22T10:32:12.883Z,13.88
2022-12-22T10:34:57.777Z,16.70
2022-12-22T10:37:29.628Z,17.13
2022-12-22T10:39:56.155Z,14.82
2022-12-22T10:42:22.484Z,14.27
2022-12-22T10:44:49.509Z,16.13
2022-12-22T10:47:18.871Z,15.15
2022-12-22T10:49:46.529Z,18.08
2022-12-22T10:52:13.723Z,24.05
2022-12-22T10:54:40.076Z,15.88
2022-12-22T10:57:20.350Z,15.45
2022-12-22T13:42:52.004Z,10.23
2022-12-22T13:45:27.781Z,15.52
2022-12-22T13:47:54.615Z,9.75
2022-12-22T13:50:24.401Z,12.45
2022-12-22T13:52:52.364Z,10.05
2022-12-22T13:55:23.422Z,9.60
2022-12-22T13:57:58.332Z,11.07
2022-12-22T14:00:26.865Z,11.38
2022-12-22T14:02:53.533Z,12.95
2022-12-22T14:05:20.925Z,9.18
2022-12-22T14:08:10.254Z,13.20
2022-12-22T14:10:40.667Z,10.13
2022-12-22T14:13:15.198Z,9.18
2022-12-22T14:15:42.273Z,10.80
2022-12-22T14:18:14.070Z,10.32
2022-12-22T14:20:42.784Z,10.30
2022-12-22T14:23:17.089Z,13.30
2022-12-22T14:25:46.371Z,11.65
2022-12-22T14:28:18.983Z,8.65
2022-12-22T14:30:48.085Z,9.80
2022-12-22T14:35:42.771Z,6.40
2022-12-22T14:38:19.093Z,5.68
2022-12-22T14:40:48.393Z,8.00
2022-12-22T14:43:30.225Z,7.85
2022-12-22T14:46:06.172Z,13.77
2022-12-22T14:48:35.172Z,10.93
2022-12-22T14:51:16.404Z,5.30
2022-12-22T14:53:46.459Z,4.43
2022-12-22T14:56:14.511Z,4.60
2022-12-22T14:59:08.204Z,6.72
2022-12-22T15:01:35.695Z,2.30
2022-12-22T15:04:06.952Z,3.50
2022-12-22T15:06:36.903Z,5.00
2022-12-22T15:10:03.601Z,5.43
2022-12-22T15:12:14.405Z,6.20
2022-12-22T15:14:42.525Z,4.28
2022-12-22T15:17:21.508Z,4.18
2022-12-22T15:19:49.467Z,4.70
2022-12-22T15:22:16.039Z,9.52
2022-12-22T15:24:42.744Z,2.55
2022-12-22T15:27:09.455Z,4.25
2022-12-22T15:29:36.122Z,4.45
2022-12-22T15:32:04.559Z,3.72
2022-12-22T15:34:32.260Z,3.83
2022-12-22T15:36:58.764Z,3.63
2022-12-22T15:39:25.280Z,4.03
2022-12-22T15:41:51.748Z,6.45
2022-12-22T15:44:18.481Z,4.43
2022-12-22T15:46:55.055Z,6.25
2022-12-22T15:49:25.296Z,4.97
2022-12-22T15:51:54.461Z,7.43
2022-12-22T15:54:21.990Z,4.75
2022-12-22T15:56:51.267Z,5.13
2022-12-22T16:01:46.185Z,5.87
2022-12-22T16:04:13.604Z,6.05
2022-12-22T16:06:41.489Z,3.60
2022-12-22T16:09:14.175Z,3.55
2022-12-22T16:11:40.857Z,6.35
2022-12-22T16:14:10.081Z,6.57
2022-12-22T16:16:36.611Z,3.60
2022-12-22T16:19:03.393Z,4.38
2022-12-22T16:21:31.660Z,3.22
2022-12-22T16:24:00.960Z,3.30
2022-12-22T16:26:27.999Z,5.68
2022-12-22T16:28:54.579Z,1.55
2022-12-22T16:31:23.172Z,2.65
2022-12-22T16:33:51.289Z,3.80
2022-12-22T16:36:17.782Z,3.35
2022-12-22T16:38:44.720Z,3.78
2022-12-22T16:41:19.850Z,3.03
2022-12-22T16:46:33.222Z,3.67
2022-12-22T16:49:01.148Z,3.53
2022-12-22T16:51:31.053Z,3.58
2022-12-22T16:53:57.545Z,5.32
2022-12-22T16:56:25.991Z,8.38
2022-12-22T16:58:52.580Z,3.80
2022-12-22T17:01:33.387Z,9.75
2022-12-22T17:04:04.679Z,3.25
2022-12-22T17:06:31.758Z,3.33
2022-12-22T17:09:02.762Z,8.10
2022-12-22T17:11:30.649Z,2.88
2022-12-22T17:14:04.672Z,3.17
2022-12-22T17:16:31.247Z,3.65
2022-12-22T17:18:58.010Z,3.03
2022-12-22T17:21:25.469Z,3.40
2022-12-22T17:23:54.682Z,3.22
2022-12-22T17:26:24.322Z,4.43
2022-12-22T17:28:52.925Z,3.50
2022-12-22T17:31:21.330Z,3.85
2022-12-22T17:33:49.059Z,3.78
2022-12-22T17:36:20.019Z,4.68
2022-12-22T17:38:46.820Z,4.22
2022-12-22T17:41:16.186Z,3.85
2022-12-22T17:43:43.215Z,3.92
2022-12-22T17:46:15.465Z,4.75
2022-12-22T17:48:42.440Z,5.43
2022-12-22T17:51:15.718Z,2.38
2022-12-22T17:53:42.352Z,6.15
2022-12-22T17:56:13.417Z,3.90
2022-12-22T17:58:39.858Z,2.67
2022-12-22T18:01:06.375Z,4.00
2022-12-22T18:03:34.278Z,2.55
2022-12-22T18:06:00.861Z,3.97
2022-12-22T18:08:30.919Z,4.03
2022-12-22T18:10:58.736Z,2.78
2022-12-22T18:13:27.939Z,8.68
2022-12-22T18:15:55.145Z,2.97
2022-12-22T18:18:22.308Z,4.00
2022-12-22T18:21:07.119Z,4.32
2022-12-22T18:23:36.638Z,4.88
2022-12-22T18:26:04.411Z,8.35
2022-12-22T18:28:30.879Z,4.78
2022-12-22T18:30:57.372Z,6.55
2022-12-22T18:33:23.990Z,4.80
2022-12-22T18:35:51.923Z,5.78
2022-12-22T18:38:26.004Z,8.43
2022-12-22T18:40:53.245Z,5.05
2022-12-22T18:43:20.136Z,4.47
2022-12-22T18:45:46.868Z,4.88
2022-12-22T18:48:13.797Z,6.60
2022-12-22T18:50:41.026Z,7.53
2022-12-22T18:53:19.737Z,5.63
2022-12-22T18:55:46.261Z,4.45
2022-12-22T18:58:14.526Z,6.32
2022-12-22T19:00:42.134Z,4.53
2022-12-22T19:03:16.346Z,8.18
2022-12-22T19:05:43.091Z,5.72
2022-12-22T19:08:14.330Z,5.68
2022-12-22T19:10:43.723Z,6.55
2022-12-22T19:13:20.017Z,8.32
2022-12-22T19:15:46.603Z,15.48
2022-12-22T19:18:19.798Z,9.15
2022-12-22T19:20:49.656Z,10.82
2022-12-22T19:23:19.937Z,11.50
2022-12-22T19:25:48.581Z,12.25
2022-12-22T19:28:27.020Z,10.23
2022-12-22T19:30:55.111Z,13.05
2022-12-22T19:33:28.098Z,9.70
2022-12-22T19:35:54.879Z,13.48
2022-12-22T19:38:23.285Z,7.53
2022-12-22T19:40:52.084Z,17.65
2022-12-22T19:43:19.358Z,4.72
2022-12-22T19:45:47.859Z,8.48
2022-12-22T19:48:17.872Z,8.52
2022-12-22T19:50:45.719Z,18.63
2022-12-22T19:53:12.919Z,6.72
2022-12-22T19:55:43.792Z,10.05
2022-12-22T19:58:19.209Z,7.80
2022-12-22T20:00:46.684Z,9.98
2022-12-22T20:03:16.847Z,12.52
2022-12-22T20:05:43.520Z,12.50
2022-12-22T20:08:09.984Z,8.27
2022-12-22T20:10:38.307Z,26.27
2022-12-22T20:13:12.072Z,8.15
2022-12-22T20:15:39.581Z,8.00
2022-12-22T20:18:14.801Z,8.10
2022-12-22T20:20:41.696Z,8.45
2022-12-22T20:23:13.788Z,7.38
2022-12-22T20:25:42.526Z,7.88
2022-12-22T20:28:18.280Z,21.30
2022-12-22T20:30:45.598Z,14.07
2022-12-22T20:33:12.830Z,13.90
2022-12-22T20:35:40.496Z,17.52
2022-12-22T20:38:19.511Z,6.63
2022-12-22T20:43:17.419Z,9.77
2022-12-22T20:45:47.167Z,7.45
2022-12-22T20:48:29.204Z,5.63
2022-12-22T20:50:55.757Z,8.57
2022-12-22T20:53:22.348Z,12.02
2022-12-22T20:55:48.870Z,6.88
2022-12-22T20:58:22.640Z,4.32
2022-12-22T21:00:50.068Z,4.85
2022-12-22T21:03:16.878Z,11.65
2022-12-22T21:05:43.545Z,9.60
2022-12-22T21:08:20.283Z,7.28
2022-12-22T21:10:49.692Z,6.78
2022-12-22T21:15:48.453Z,2.70
2022-12-22T21:18:16.501Z,3.38
2022-12-22T21:20:43.215Z,7.55
2022-12-22T21:23:10.034Z,5.25
2022-12-22T21:25:41.797Z,3.38
2022-12-22T21:28:21.028Z,4.72
2022-12-22T21:30:48.966Z,5.38
2022-12-22T21:33:15.511Z,5.03
2022-12-22T21:35:42.370Z,5.05
2022-12-22T21:38:16.255Z,11.73
2022-12-22T21:40:42.770Z,5.38
2022-12-22T21:43:12.920Z,4.18
2022-12-22T21:45:42.809Z,8.07
2022-12-22T21:48:13.204Z,5.50
2022-12-22T21:50:40.001Z,3.33
2022-12-22T21:53:07.157Z,6.90
2022-12-22T21:55:35.480Z,6.30
2022-12-22T21:58:02.831Z,4.40
2022-12-22T22:00:31.077Z,5.32
2022-12-22T22:02:58.242Z,5.10
2022-12-22T22:05:28.636Z,2.72
2022-12-22T22:07:56.689Z,11.60
2022-12-22T22:10:24.918Z,6.78
2022-12-22T22:12:51.496Z,7.80
2022-12-22T22:15:19.372Z,7.45
2022-12-22T22:17:46.482Z,3.03
2022-12-22T22:20:15.737Z,9.38
2022-12-22T22:22:44.323Z,10.38
2022-12-22T22:25:11.816Z,3.00
2022-12-22T22:27:41.778Z,3.78
2022-12-22T22:30:14.806Z,6.95
2022-12-22T22:32:41.447Z,3.03
2022-12-22T22:35:09.070Z,4.30
2022-12-22T22:37:35.907Z,3.83
2022-12-22T22:40:04.728Z,3.72
2022-12-22T22:42:31.251Z,4.53
2022-12-22T22:44:57.751Z,4.38
2022-12-22T22:47:24.267Z,7.63
2022-12-22T22:49:50.848Z,8.68
2022-12-22T22:52:17.391Z,2.72
2022-12-22T22:54:43.899Z,5.47
2022-12-22T22:57:11.801Z,3.80
2022-12-22T22:59:38.314Z,6.65
2022-12-22T23:02:04.969Z,8.10
2022-12-22T23:04:32.329Z,8.15
2022-12-22T23:06:58.858Z,6.55
2022-12-22T23:09:25.432Z,29.17
2022-12-22T23:11:52.704Z,4.40
2022-12-22T23:14:21.472Z,2.60
2022-12-22T23:16:48.387Z,4.90
2022-12-22T23:19:14.898Z,6.15
2022-12-22T23:21:41.364Z,3.85
2022-12-22T23:24:08.288Z,5.57
2022-12-22T23:26:35.162Z,2.72
2022-12-22T23:29:03.959Z,5.93
2022-12-22T23:31:33.247Z,2.25
2022-12-22T23:34:00.039Z,5.13
2022-12-22T23:36:26.537Z,7.05
2022-12-22T23:38:53.032Z,2.60
2022-12-22T23:41:20.026Z,5.82
2022-12-22T23:43:46.584Z,5.03
2022-12-22T23:46:16.070Z,4.75
2022-12-22T23:48:44.662Z,5.53
2022-12-22T23:51:11.654Z,6.50
2022-12-22T23:53:38.287Z,3.80
2022-12-22T23:56:05.597Z,5.40
2022-12-22T23:58:32.027Z,2.85
